createdAt,value
2019-06-07T00:06:21.294Z,7.30
2019-06-07T00:09:35.977Z,8.93
2019-06-07T00:16:08.520Z,8.37
2019-06-07T00:19:39.711Z,7.50
2019-06-07T00:30:40.108Z,6.00
2019-06-07T00:37:02.756Z,6.67
2019-06-07T00:40:32.048Z,6.50
2019-06-07T00:44:10.162Z,5.93
2019-06-07T00:47:52.441Z,6.37
2019-06-07T00:54:39.791Z,5.10
2019-06-07T00:57:24.217Z,4.40
2019-06-07T01:01:01.066Z,4.00
2019-06-07T01:04:06.539Z,4.40
2019-06-07T01:07:18.352Z,3.77
2019-06-07T01:10:13.836Z,3.50
2019-06-07T01:13:15.437Z,4.10
2019-06-07T01:19:02.884Z,3.67
2019-06-07T01:22:27.484Z,3.33
2019-06-07T01:25:18.255Z,2.77
2019-06-07T01:27:51.232Z,3.17
2019-06-07T01:31:33.570Z,3.20
2019-06-07T01:34:12.992Z,3.47
2019-06-07T01:40:40.235Z,3.73
2019-06-07T01:43:59.591Z,3.70
2019-06-07T01:47:15.379Z,4.30
2019-06-07T01:54:52.185Z,4.50
2019-06-07T01:58:07.997Z,3.83
2019-06-07T02:01:21.657Z,4.00
2019-06-07T02:04:53.566Z,3.83
2019-06-07T02:07:38.876Z,3.10
2019-06-07T02:10:26.144Z,3.80
2019-06-07T02:13:03.695Z,3.77
2019-06-07T02:15:51.938Z,3.70
2019-06-07T02:18:34.966Z,3.47
2019-06-07T02:21:11.677Z,3.07
2019-06-07T02:23:54.689Z,3.40
2019-06-07T02:26:32.150Z,3.30
2019-06-07T02:29:06.580Z,3.37
2019-06-07T02:31:50.516Z,3.00
2019-06-07T02:38:09.297Z,3.20
2019-06-07T02:40:45.297Z,2.73
2019-06-07T02:43:20.367Z,2.57
2019-06-07T02:45:54.999Z,2.17
2019-06-07T02:48:35.433Z,2.00
2019-06-07T02:51:07.373Z,2.00
2019-06-07T02:53:46.747Z,1.80
2019-06-07T02:56:42.057Z,2.00
2019-06-07T02:59:07.938Z,1.80
2019-06-07T03:01:53.121Z,1.87
2019-06-07T03:04:34.177Z,2.10
2019-06-07T03:07:04.908Z,1.87
2019-06-07T03:09:39.801Z,2.03
2019-06-07T03:12:14.053Z,1.93
2019-06-07T03:14:46.507Z,1.90
2019-06-07T03:17:40.203Z,2.10
2019-06-07T03:20:12.228Z,2.10
2019-06-07T03:22:43.915Z,2.30
2019-06-07T03:25:15.543Z,2.23
2019-06-07T03:27:49.868Z,2.37
2019-06-07T03:32:52.059Z,3.27
2019-06-07T03:35:23.084Z,2.40
2019-06-07T03:37:53.710Z,3.27
2019-06-07T03:40:26.692Z,3.33
2019-06-07T03:42:57.438Z,2.93
2019-06-07T03:45:28.997Z,3.20
2019-06-07T03:48:00.237Z,3.10
2019-06-07T03:50:33.506Z,3.20
2019-06-07T03:53:06.027Z,2.93
2019-06-07T03:55:39.096Z,3.10
2019-06-07T04:00:43.448Z,3.50
2019-06-07T04:03:32.922Z,3.30
2019-06-07T04:05:47.009Z,3.37
2019-06-07T04:08:17.848Z,3.27
2019-06-07T04:10:59.697Z,3.20
2019-06-07T04:13:22.594Z,3.50
2019-06-07T04:15:53.665Z,3.37
2019-06-07T04:18:24.463Z,3.67
2019-06-07T04:20:55.093Z,3.60
2019-06-07T04:23:30.061Z,4.00
2019-06-07T04:25:58.924Z,4.10
2019-06-07T04:29:27.399Z,4.17
2019-06-07T04:31:04.122Z,4.27
2019-06-07T04:33:40.846Z,3.90
2019-06-07T04:36:08.093Z,3.87
2019-06-07T04:38:42.598Z,4.37
2019-06-07T04:41:15.300Z,4.03
2019-06-07T04:43:47.795Z,3.80
2019-06-07T04:46:23.458Z,4.30
2019-06-07T04:48:55.389Z,4.20
2019-06-07T04:51:27.106Z,4.50
2019-06-07T04:53:58.219Z,4.10
2019-06-07T04:56:30.038Z,4.47
2019-06-07T04:59:01.628Z,4.10
2019-06-07T05:01:36.728Z,4.23
2019-06-07T05:04:08.981Z,4.43
2019-06-07T05:06:42.627Z,3.77
2019-06-07T05:09:16.439Z,3.73
2019-06-07T05:11:52.614Z,3.57
2019-06-07T05:14:23.441Z,3.90
2019-06-07T05:16:55.798Z,3.43
2019-06-07T05:19:26.960Z,4.33
2019-06-07T05:22:04.135Z,4.65
2019-06-07T05:24:31.410Z,4.77
2019-06-07T05:27:03.196Z,3.60
2019-06-07T05:29:36.836Z,3.97
2019-06-07T05:32:06.616Z,3.87
2019-06-07T05:34:41.891Z,4.20
2019-06-07T05:37:12.063Z,4.03
2019-06-07T05:39:46.568Z,3.90
2019-06-07T05:42:17.491Z,3.50
2019-06-07T05:44:48.314Z,3.83
2019-06-07T05:47:19.215Z,3.47
2019-06-07T05:49:50.174Z,3.53
2019-06-07T05:52:21.614Z,3.77
2019-06-07T05:54:52.317Z,3.70
2019-06-07T05:57:23.444Z,3.77
2019-06-07T05:59:54.215Z,3.33
2019-06-07T06:02:25.180Z,3.17
2019-06-07T06:04:57.300Z,3.40
2019-06-07T06:07:28.327Z,3.37
2019-06-07T06:09:59.529Z,3.40
2019-06-07T06:12:35.168Z,3.67
2019-06-07T06:15:04.466Z,3.00
2019-06-07T06:17:42.672Z,3.00
2019-06-07T06:20:11.940Z,3.77
2019-06-07T06:22:50.575Z,3.13
2019-06-07T06:25:31.626Z,3.03
2019-06-07T06:28:10.202Z,2.63
2019-06-07T06:30:25.621Z,3.00
2019-06-07T06:32:58.537Z,3.00
2019-06-07T06:35:32.454Z,3.37
2019-06-07T06:38:04.155Z,2.70
2019-06-07T06:40:35.629Z,3.00
2019-06-07T06:43:06.859Z,2.80
2019-06-07T06:45:42.924Z,2.70
2019-06-07T06:48:14.683Z,2.73
2019-06-07T06:50:50.390Z,2.60
2019-06-07T06:53:20.203Z,3.30
2019-06-07T06:55:51.757Z,2.87
2019-06-07T06:58:22.886Z,2.97
2019-06-07T07:01:06.793Z,2.60
2019-06-07T07:04:00.110Z,2.20
2019-06-07T07:06:26.544Z,2.67
2019-06-07T07:08:53.550Z,2.77
2019-06-07T07:11:29.705Z,2.40
2019-06-07T07:14:07.561Z,2.80
2019-06-07T07:16:42.059Z,2.53
2019-06-07T07:19:21.839Z,2.70
2019-06-07T07:21:59.578Z,2.43
2019-06-07T07:24:31.201Z,2.80
2019-06-07T07:27:01.974Z,2.47
2019-06-07T07:29:33.248Z,2.87
2019-06-07T07:32:04.356Z,2.80
2019-06-07T07:34:37.413Z,2.73
2019-06-07T07:37:08.352Z,2.60
2019-06-07T07:39:39.677Z,2.20
2019-06-07T07:42:21.274Z,2.00
2019-06-07T07:44:49.063Z,2.50
2019-06-07T07:47:21.795Z,2.00
2019-06-07T07:49:56.465Z,2.07
2019-06-07T07:52:26.003Z,1.97
2019-06-07T07:55:00.415Z,2.93
2019-06-07T07:57:31.702Z,2.00
2019-06-07T08:00:48.141Z,2.27
2019-06-07T08:02:35.263Z,2.50
2019-06-07T08:05:21.693Z,1.90
2019-06-07T08:07:39.331Z,1.67
2019-06-07T08:10:10.290Z,1.70
2019-06-07T08:13:00.798Z,1.70
2019-06-07T08:15:14.287Z,2.13
2019-06-07T08:17:47.071Z,1.83
2019-06-07T08:20:17.687Z,1.80
2019-06-07T08:22:52.550Z,2.00
2019-06-07T08:25:23.744Z,2.20
2019-06-07T08:27:57.075Z,2.13
2019-06-07T08:33:24.528Z,2.00
2019-06-07T08:36:05.835Z,2.00
2019-06-07T08:38:25.868Z,1.80
2019-06-07T08:40:46.935Z,1.77
2019-06-07T08:43:21.063Z,1.87
2019-06-07T08:46:00.822Z,2.00
2019-06-07T08:48:28.265Z,2.13
2019-06-07T08:51:08.319Z,2.07
2019-06-07T08:53:37.027Z,1.60
2019-06-07T08:56:10.915Z,2.00
2019-06-07T08:58:40.081Z,1.67
2019-06-07T09:01:11.143Z,1.80
2019-06-07T09:03:42.365Z,2.30
2019-06-07T09:07:01.288Z,1.77
2019-06-07T09:08:47.779Z,1.93
2019-06-07T09:11:18.787Z,1.90
2019-06-07T09:13:49.527Z,1.73
2019-06-07T09:16:24.438Z,1.93
2019-06-07T09:18:58.562Z,1.90
2019-06-07T09:21:28.848Z,1.70
2019-06-07T09:24:05.489Z,1.60
2019-06-07T09:26:32.640Z,1.23
2019-06-07T09:29:08.414Z,1.50
2019-06-07T09:31:51.983Z,1.33
2019-06-07T09:34:13.960Z,1.33
2019-06-07T09:36:42.375Z,1.53
2019-06-07T09:39:13.979Z,1.53
2019-06-07T09:41:50.356Z,1.30
2019-06-07T09:44:25.089Z,1.73
2019-06-07T09:47:12.917Z,1.27
2019-06-07T09:49:31.873Z,1.17
2019-06-07T09:52:02.203Z,1.40
2019-06-07T09:57:11.115Z,1.40
2019-06-07T09:59:42.611Z,1.40
2019-06-07T10:02:37.052Z,1.30
2019-06-07T10:05:52.048Z,1.37
2019-06-07T10:09:42.329Z,1.30
2019-06-07T10:10:55.213Z,0.90
2019-06-07T10:13:26.241Z,1.07
2019-06-07T10:15:58.748Z,0.87
2019-06-07T10:18:30.189Z,1.30
2019-06-07T10:21:01.386Z,0.90
2019-06-07T10:23:31.930Z,1.20
2019-06-07T10:26:03.955Z,1.07
2019-06-07T10:28:34.625Z,1.10
2019-06-07T10:31:08.935Z,0.87
2019-06-07T10:33:37.868Z,0.87
2019-06-07T10:36:08.714Z,1.20
2019-06-07T10:38:39.444Z,0.70
2019-06-07T10:41:11.093Z,0.67
2019-06-07T10:43:41.753Z,1.00
2019-06-07T10:46:14.472Z,0.83
2019-06-07T10:48:45.160Z,0.90
2019-06-07T10:51:15.632Z,0.93
2019-06-07T10:53:46.291Z,1.00
2019-06-07T10:56:17.215Z,1.33
2019-06-07T10:58:48.890Z,0.80
2019-06-07T11:01:22.569Z,1.20
2019-06-07T11:03:53.453Z,0.90
2019-06-07T11:06:23.937Z,1.10
2019-06-07T11:08:54.448Z,1.13
2019-06-07T11:11:24.981Z,0.60
2019-06-07T11:13:55.711Z,1.07
2019-06-07T11:16:26.061Z,0.90
2019-06-07T11:18:56.782Z,1.10
2019-06-07T11:21:27.352Z,0.80
2019-06-07T11:23:59.995Z,0.80
2019-06-07T11:26:32.360Z,1.03
2019-06-07T11:29:02.745Z,0.90
2019-06-07T11:31:33.239Z,0.93
2019-06-07T11:34:04.100Z,0.77
2019-06-07T11:36:34.614Z,0.90
2019-06-07T11:39:07.028Z,0.57
2019-06-07T11:41:38.080Z,0.80
2019-06-07T11:44:08.820Z,0.80
2019-06-07T11:46:39.413Z,0.80
2019-06-07T11:49:10.907Z,0.90
2019-06-07T11:51:42.035Z,0.70
2019-06-07T11:54:14.011Z,0.90
2019-06-07T11:56:44.606Z,0.90
2019-06-07T11:59:15.304Z,0.80
2019-06-07T12:01:47.057Z,0.90
2019-06-07T12:04:33.701Z,0.60
2019-06-07T12:06:50.268Z,0.70
2019-06-07T12:09:21.077Z,0.53
2019-06-07T12:11:51.928Z,0.60
2019-06-07T12:14:22.695Z,0.63
2019-06-07T12:16:55.689Z,0.60
2019-06-07T12:19:26.557Z,0.83
2019-06-07T12:21:57.222Z,0.50
2019-06-07T12:24:30.325Z,0.67
2019-06-07T12:27:02.925Z,0.60
2019-06-07T12:29:34.109Z,0.50
2019-06-07T12:32:05.927Z,0.50
2019-06-07T12:34:36.624Z,0.40
2019-06-07T12:37:07.194Z,0.50
2019-06-07T12:39:37.720Z,0.30
2019-06-07T12:42:12.408Z,0.40
2019-06-07T12:44:42.987Z,0.50
2019-06-07T12:47:13.434Z,0.70
2019-06-07T12:49:44.338Z,0.40
2019-06-07T12:52:17.761Z,0.50
2019-06-07T12:54:48.625Z,0.47
2019-06-07T12:57:22.123Z,0.40
2019-06-07T12:59:52.707Z,0.30
2019-06-07T13:02:24.051Z,0.43
2019-06-07T13:04:56.646Z,0.50
2019-06-07T13:07:27.955Z,0.40
2019-06-07T13:09:58.498Z,0.20
2019-06-07T13:12:28.841Z,0.30
2019-06-07T13:14:59.502Z,0.30
2019-06-07T13:17:29.981Z,0.30
2019-06-07T13:20:00.985Z,0.20
2019-06-07T13:22:31.616Z,0.20
2019-06-07T13:25:02.202Z,0.20
2019-06-07T13:27:33.764Z,0.20
2019-06-07T13:30:10.359Z,0.20
2019-06-07T13:32:38.495Z,0.30
2019-06-07T13:35:09.948Z,0.23
2019-06-07T13:37:40.375Z,0.20
2019-06-07T13:40:13.026Z,0.20
2019-06-07T13:42:43.254Z,0.27
2019-06-07T13:45:15.354Z,0.20
2019-06-07T13:47:45.892Z,0.20
2019-06-07T13:50:17.630Z,0.40
2019-06-07T13:52:48.523Z,0.40
2019-06-07T13:55:19.971Z,0.30
2019-06-07T13:57:50.676Z,0.30
2019-06-07T14:00:22.978Z,0.20
2019-06-07T14:02:55.765Z,0.30
2019-06-07T14:05:27.304Z,0.40
2019-06-07T14:07:57.693Z,0.30
2019-06-07T14:10:29.554Z,0.20
2019-06-07T14:13:00.174Z,0.40
2019-06-07T14:15:34.115Z,0.20
2019-06-07T14:18:02.976Z,0.27
2019-06-07T14:20:34.778Z,0.30
2019-06-07T14:23:05.504Z,0.27
2019-06-07T14:25:36.583Z,0.33
2019-06-07T14:28:11.742Z,0.40
2019-06-07T14:30:42.564Z,0.30
2019-06-07T14:33:13.057Z,0.23
2019-06-07T14:35:43.584Z,0.30
2019-06-07T14:38:14.072Z,0.40
2019-06-07T14:40:44.729Z,0.33
2019-06-07T14:43:15.397Z,0.40
2019-06-07T14:48:15.404Z,0.30
2019-06-07T14:50:46.013Z,0.30
2019-06-07T14:53:16.558Z,0.30
2019-06-07T14:55:48.385Z,0.30
2019-06-07T14:58:18.936Z,0.30
2019-06-07T15:00:49.411Z,0.37
2019-06-07T15:03:19.885Z,0.40
2019-06-07T15:05:52.899Z,0.40
2019-06-07T15:08:23.589Z,0.53
2019-06-07T15:10:54.214Z,0.40
2019-06-07T15:13:24.985Z,0.30
2019-06-07T15:15:55.448Z,0.30
2019-06-07T15:18:25.914Z,0.37
2019-06-07T15:20:59.221Z,0.30
2019-06-07T15:23:31.016Z,0.20
2019-06-07T15:26:01.613Z,0.30
2019-06-07T15:28:32.326Z,0.40
2019-06-07T15:31:04.224Z,0.33
2019-06-07T15:33:36.416Z,0.20
2019-06-07T15:36:08.121Z,0.20
2019-06-07T15:38:39.985Z,0.20
2019-06-07T15:41:10.875Z,0.50
2019-06-07T15:43:41.687Z,0.30
2019-06-07T15:46:14.386Z,0.30
2019-06-07T15:48:44.962Z,0.30
2019-06-07T15:51:16.851Z,0.40
2019-06-07T15:53:47.313Z,0.20
2019-06-07T15:56:17.777Z,0.30
2019-06-07T15:58:48.358Z,0.47
2019-06-07T16:01:19.668Z,0.40
2019-06-07T16:03:55.109Z,0.40
2019-06-07T16:06:25.870Z,0.30
2019-06-07T16:08:59.532Z,0.50
2019-06-07T16:11:32.774Z,0.40
2019-06-07T16:14:06.213Z,0.43
2019-06-07T16:16:35.463Z,0.37
2019-06-07T16:19:06.244Z,0.33
2019-06-07T16:21:39.500Z,0.40
2019-06-07T16:24:10.078Z,0.40
2019-06-07T16:26:40.563Z,0.30
2019-06-07T16:29:11.115Z,0.27
2019-06-07T16:31:42.733Z,0.30
2019-06-07T16:34:15.368Z,0.50
2019-06-07T16:36:46.936Z,0.40
2019-06-07T16:39:18.550Z,0.40
2019-06-07T16:41:49.081Z,0.40
2019-06-07T16:44:19.597Z,0.40
2019-06-07T16:46:50.241Z,0.60
2019-06-07T16:49:20.704Z,0.40
2019-06-07T16:51:51.589Z,0.30
2019-06-07T16:54:22.259Z,0.40
2019-06-07T16:56:52.998Z,0.40
2019-06-07T16:59:23.502Z,0.30
2019-06-07T17:01:54.182Z,0.50
2019-06-07T17:04:24.755Z,0.40
2019-06-07T17:06:55.662Z,0.30
2019-06-07T17:09:26.793Z,0.30
2019-06-07T17:11:57.288Z,0.60
2019-06-07T17:14:27.963Z,0.37
2019-06-07T17:16:58.697Z,0.30
2019-06-07T17:19:29.597Z,0.50
2019-06-07T17:22:00.416Z,0.50
2019-06-07T17:24:31.099Z,0.30
2019-06-07T17:27:01.963Z,0.43
2019-06-07T17:29:32.974Z,0.50
2019-06-07T17:32:03.721Z,0.40
2019-06-07T17:34:34.494Z,0.53
2019-06-07T17:37:05.251Z,0.43
2019-06-07T17:39:35.766Z,0.40
2019-06-07T17:42:06.241Z,0.40
2019-06-07T17:44:37.137Z,0.40
2019-06-07T17:47:07.939Z,0.50
2019-06-07T17:49:38.665Z,0.40
2019-06-07T17:52:09.446Z,0.50
2019-06-07T17:54:40.275Z,0.50
2019-06-07T17:57:11.535Z,0.40
2019-06-07T17:59:42.431Z,0.50
2019-06-07T18:02:15.563Z,0.43
2019-06-07T18:04:47.165Z,0.70
2019-06-07T18:07:19.717Z,0.43
2019-06-07T18:09:51.622Z,0.50
2019-06-07T18:12:22.836Z,0.40
2019-06-07T18:14:54.509Z,0.60
2019-06-07T18:17:34.541Z,0.60
2019-06-07T18:19:59.176Z,0.67
2019-06-07T18:22:30.105Z,0.60
2019-06-07T18:25:01.235Z,0.60
2019-06-07T18:27:31.894Z,0.60
2019-06-07T18:30:10.874Z,0.50
2019-06-07T18:32:37.174Z,0.50
2019-06-07T18:35:08.107Z,0.53
2019-06-07T18:37:39.090Z,0.73
2019-06-07T18:40:10.117Z,0.50
2019-06-07T18:42:41.168Z,0.50
2019-06-07T18:45:12.500Z,0.70
2019-06-07T18:47:42.981Z,0.47
2019-06-07T18:50:13.787Z,0.60
2019-06-07T18:52:46.701Z,0.60
2019-06-07T18:55:17.744Z,0.47
2019-06-07T18:57:48.441Z,0.57
2019-06-07T19:00:19.498Z,0.60
2019-06-07T19:02:51.751Z,0.60
2019-06-07T19:05:23.979Z,0.63
2019-06-07T19:07:54.822Z,0.70
2019-06-07T19:10:27.459Z,0.60
2019-06-07T19:13:00.347Z,0.60
2019-06-07T19:15:30.966Z,0.60
2019-06-07T19:18:01.782Z,0.60
2019-06-07T19:20:32.704Z,0.70
2019-06-07T19:23:03.736Z,0.50
2019-06-07T19:25:34.516Z,0.70
2019-06-07T19:28:05.274Z,0.60
2019-06-07T19:30:35.949Z,0.60
2019-06-07T19:33:09.700Z,0.67
2019-06-07T19:35:40.439Z,0.60
2019-06-07T19:38:12.476Z,0.70
2019-06-07T19:40:43.586Z,0.60
2019-06-07T19:43:18.296Z,1.23
2019-06-07T19:45:49.143Z,0.67
2019-06-07T19:48:21.509Z,0.63
2019-06-07T19:50:52.887Z,0.80
2019-06-07T19:53:24.322Z,0.60
2019-06-07T19:55:55.377Z,0.73
2019-06-07T19:58:26.818Z,0.57
2019-06-07T20:01:02.486Z,0.63
2019-06-07T20:03:33.398Z,0.80
2019-06-07T20:06:04.507Z,0.77
2019-06-07T20:08:35.522Z,0.77
2019-06-07T20:11:06.880Z,0.70
2019-06-07T20:13:37.541Z,0.80
2019-06-07T20:16:08.269Z,0.83
2019-06-07T20:18:38.980Z,0.83
2019-06-07T20:21:10.059Z,0.77
2019-06-07T20:23:41.154Z,0.90
2019-06-07T20:26:12.247Z,1.00
2019-06-07T20:28:43.134Z,0.80
2019-06-07T20:31:13.986Z,0.70
2019-06-07T20:33:46.307Z,1.00
2019-06-07T20:36:17.164Z,1.00
2019-06-07T20:38:48.214Z,1.13
2019-06-07T20:41:21.557Z,1.20
2019-06-07T20:43:52.424Z,1.00
2019-06-07T20:46:23.516Z,1.00
2019-06-07T20:48:54.660Z,0.97
2019-06-07T20:51:25.657Z,1.00
2019-06-07T20:53:58.405Z,1.13
2019-06-07T20:56:31.938Z,0.80
2019-06-07T20:59:04.763Z,1.07
2019-06-07T21:01:35.554Z,1.07
2019-06-07T21:04:07.288Z,0.90
2019-06-07T21:06:38.618Z,1.10
2019-06-07T21:09:11.528Z,1.30
2019-06-07T21:11:45.454Z,0.90
2019-06-07T21:14:16.197Z,1.10
2019-06-07T21:16:47.071Z,1.40
2019-06-07T21:19:17.715Z,1.23
2019-06-07T21:21:48.390Z,1.10
2019-06-07T21:24:20.389Z,1.60
2019-06-07T21:26:53.359Z,1.50
2019-06-07T21:29:23.733Z,1.00
2019-06-07T21:31:54.627Z,1.20
2019-06-07T21:34:25.819Z,1.13
2019-06-07T21:36:56.846Z,1.17
2019-06-07T21:39:36.999Z,1.20
2019-06-07T21:42:08.162Z,1.20
2019-06-07T21:44:39.175Z,1.13
2019-06-07T21:47:10.623Z,1.50
2019-06-07T21:49:41.650Z,1.30
2019-06-07T21:52:13.173Z,1.23
2019-06-07T21:54:45.126Z,1.43
2019-06-07T21:57:15.853Z,1.50
2019-06-07T21:59:46.723Z,1.20
2019-06-07T22:02:17.894Z,1.60
2019-06-07T22:04:53.806Z,1.50
2019-06-07T22:07:24.504Z,1.50
2019-06-07T22:09:55.186Z,2.00
2019-06-07T22:12:26.056Z,1.50
2019-06-07T22:14:56.807Z,1.70
2019-06-07T22:17:27.489Z,1.63
2019-06-07T22:19:58.405Z,1.60
2019-06-07T22:22:29.172Z,1.50
2019-06-07T22:24:59.891Z,1.40
2019-06-07T22:27:30.420Z,1.77
2019-06-07T22:30:01.245Z,1.37
2019-06-07T22:32:31.973Z,1.97
2019-06-07T22:35:03.051Z,2.00
2019-06-07T22:37:37.718Z,1.63
2019-06-07T22:40:08.729Z,2.03
2019-06-07T22:42:39.330Z,2.13
2019-06-07T22:45:10.945Z,1.90
2019-06-07T22:47:41.532Z,2.23
2019-06-07T22:50:14.446Z,2.00
2019-06-07T22:52:45.204Z,2.70
2019-06-07T22:55:15.926Z,2.43
2019-06-07T22:57:56.021Z,2.93
2019-06-07T23:00:27.888Z,2.47
2019-06-07T23:02:58.646Z,2.40
2019-06-07T23:05:29.174Z,2.93
2019-06-07T23:07:59.734Z,2.50
2019-06-07T23:10:30.368Z,2.67
2019-06-07T23:13:00.864Z,2.30
2019-06-07T23:15:31.608Z,2.20
2019-06-07T23:18:02.334Z,2.60
2019-06-07T23:20:35.847Z,2.80
2019-06-07T23:23:06.028Z,2.97
2019-06-07T23:25:39.144Z,3.07
2019-06-07T23:28:10.217Z,2.90
2019-06-07T23:30:40.741Z,3.23
2019-06-07T23:33:12.999Z,2.57
2019-06-07T23:35:43.562Z,3.30
2019-06-07T23:38:14.936Z,3.40
2019-06-07T23:40:45.477Z,2.70
2019-06-07T23:43:17.544Z,3.27
2019-06-07T23:45:48.049Z,3.47
2019-06-07T23:48:19.543Z,2.77
2019-06-07T23:50:49.993Z,3.23
2019-06-07T23:53:22.043Z,3.00
2019-06-07T23:55:53.089Z,3.30
2019-06-07T23:58:23.658Z,3.00
